createdAt,value
2018-10-21T00:00:14.186Z,100.00
2018-10-21T00:02:44.401Z,100.00
2018-10-21T00:05:14.575Z,100.00
2018-10-21T00:07:44.722Z,100.00
2018-10-21T00:10:14.910Z,100.00
2018-10-21T00:12:45.162Z,100.00
2018-10-21T00:15:15.458Z,100.00
2018-10-21T00:17:45.540Z,100.00
2018-10-21T00:20:15.645Z,100.00
2018-10-21T00:22:45.724Z,100.00
2018-10-21T00:25:15.989Z,100.00
2018-10-21T00:27:46.080Z,100.00
2018-10-21T00:30:16.217Z,100.00
2018-10-21T00:32:48.422Z,100.00
2018-10-21T00:35:18.623Z,100.00
2018-10-21T00:37:48.757Z,100.00
2018-10-21T00:40:18.898Z,100.00
2018-10-21T00:42:49.394Z,100.00
2018-10-21T00:45:19.485Z,100.00
2018-10-21T00:47:49.718Z,100.00
2018-10-21T00:50:19.889Z,100.00
2018-10-21T00:52:50.381Z,100.00
2018-10-21T00:55:20.634Z,100.00
2018-10-21T00:57:50.882Z,100.00
2018-10-21T01:00:20.957Z,100.00
2018-10-21T01:02:51.178Z,100.00
2018-10-21T01:05:21.291Z,100.00
2018-10-21T01:07:51.421Z,100.00
2018-10-21T01:10:21.574Z,100.00
2018-10-21T01:12:51.724Z,100.00
2018-10-21T01:15:22.034Z,100.00
2018-10-21T01:17:52.591Z,100.00
2018-10-21T01:20:22.745Z,100.00
2018-10-21T01:22:53.597Z,100.00
2018-10-21T01:25:23.738Z,100.00
2018-10-21T01:27:53.850Z,100.00
2018-10-21T01:30:23.960Z,100.00
2018-10-21T01:32:54.130Z,100.00
2018-10-21T01:35:24.320Z,100.00
2018-10-21T01:37:54.574Z,100.00
2018-10-21T01:40:34.326Z,100.00
2018-10-21T01:43:05.146Z,100.00
2018-10-21T01:45:35.354Z,100.00
2018-10-21T01:48:07.987Z,100.00
2018-10-21T01:50:38.194Z,100.00
2018-10-21T01:53:09.639Z,100.00
2018-10-21T01:55:39.728Z,100.00
2018-10-21T01:58:09.983Z,100.00
2018-10-21T02:00:40.721Z,100.00
2018-10-21T02:03:11.170Z,100.00
2018-10-21T02:05:41.998Z,100.00
2018-10-21T02:08:12.184Z,100.00
2018-10-21T02:10:42.313Z,100.00
2018-10-21T02:13:12.519Z,100.00
2018-10-21T02:15:42.613Z,100.00
2018-10-21T02:18:12.823Z,100.00
2018-10-21T02:20:42.968Z,100.00
2018-10-21T02:23:13.495Z,100.00
2018-10-21T02:25:44.093Z,100.00
2018-10-21T02:28:14.373Z,100.00
2018-10-21T02:30:44.490Z,100.00
2018-10-21T02:33:14.784Z,100.00
2018-10-21T02:35:44.897Z,100.00
2018-10-21T02:38:15.016Z,100.00
2018-10-21T02:41:58.097Z,100.00
2018-10-21T02:44:28.303Z,100.00
2018-10-21T02:46:58.838Z,100.00
2018-10-21T02:49:29.246Z,100.00
2018-10-21T02:52:04.499Z,100.00
2018-10-21T02:54:34.911Z,100.00
2018-10-21T02:57:07.123Z,100.00
2018-10-21T02:59:37.524Z,100.00
2018-10-21T03:02:07.843Z,100.00
2018-10-21T03:04:38.026Z,100.00
2018-10-21T03:07:08.387Z,100.00
2018-10-21T03:09:38.573Z,100.00
2018-10-21T03:12:08.940Z,100.00
2018-10-21T03:14:39.059Z,100.00
2018-10-21T03:17:09.186Z,100.00
2018-10-21T03:19:39.389Z,100.00
2018-10-21T03:22:09.527Z,100.00
2018-10-21T03:24:39.765Z,100.00
2018-10-21T03:27:09.894Z,100.00
2018-10-21T03:29:40.091Z,100.00
2018-10-21T03:32:10.465Z,100.00
2018-10-21T03:34:40.697Z,100.00
2018-10-21T03:37:10.799Z,100.00
2018-10-21T03:39:40.959Z,100.00
2018-10-21T03:42:11.091Z,100.00
2018-10-21T03:44:41.212Z,100.00
2018-10-21T03:47:11.318Z,100.00
2018-10-21T03:49:41.438Z,100.00
2018-10-21T03:52:11.654Z,100.00
2018-10-21T03:54:45.731Z,100.00
2018-10-21T03:57:15.903Z,100.00
2018-10-21T03:59:46.313Z,100.00
2018-10-21T04:02:16.470Z,100.00
2018-10-21T04:04:46.584Z,100.00
2018-10-21T04:07:16.667Z,100.00
2018-10-21T04:09:46.928Z,100.00
2018-10-21T04:12:17.065Z,100.00
2018-10-21T04:14:47.261Z,100.00
2018-10-21T04:17:17.346Z,100.00
2018-10-21T04:19:47.560Z,100.00
2018-10-21T04:22:17.962Z,100.00
2018-10-21T04:24:48.109Z,100.00
2018-10-21T04:27:18.340Z,100.00
2018-10-21T04:29:48.572Z,100.00
2018-10-21T04:32:18.807Z,100.00
2018-10-21T04:34:49.115Z,100.00
2018-10-21T04:37:35.724Z,100.00
2018-10-21T04:40:20.356Z,100.00
2018-10-21T04:42:51.246Z,100.00
2018-10-21T04:45:22.795Z,100.00
2018-10-21T04:47:52.892Z,100.00
2018-10-21T04:50:23.028Z,100.00
2018-10-21T04:52:53.082Z,100.00
2018-10-21T04:55:23.633Z,100.00
2018-10-21T04:57:53.849Z,100.00
2018-10-21T05:00:24.610Z,100.00
2018-10-21T05:02:54.892Z,100.00
2018-10-21T05:05:25.329Z,100.00
2018-10-21T05:07:55.540Z,100.00
2018-10-21T05:10:30.950Z,100.00
2018-10-21T05:13:01.282Z,100.00
2018-10-21T05:15:33.156Z,100.00
2018-10-21T05:18:03.297Z,100.00
2018-10-21T05:20:33.410Z,100.00
2018-10-21T05:23:03.749Z,100.00
2018-10-21T05:25:33.858Z,100.00
2018-10-21T05:28:04.055Z,100.00
2018-10-21T05:30:34.137Z,100.00
2018-10-21T05:33:04.254Z,100.00
2018-10-21T05:35:34.451Z,100.00
2018-10-21T05:38:04.669Z,100.00
2018-10-21T05:40:34.994Z,100.00
2018-10-21T05:43:05.140Z,100.00
2018-10-21T05:45:35.481Z,100.00
2018-10-21T05:48:05.750Z,100.00
2018-10-21T05:50:35.937Z,100.00
2018-10-21T05:53:06.477Z,100.00
2018-10-21T05:55:37.214Z,100.00
2018-10-21T05:58:07.696Z,100.00
2018-10-21T06:00:37.797Z,100.00
2018-10-21T06:03:07.981Z,100.00
2018-10-21T06:05:40.700Z,100.00
2018-10-21T06:08:11.084Z,100.00
2018-10-21T06:10:41.859Z,100.00
2018-10-21T06:13:12.277Z,100.00
2018-10-21T06:15:42.679Z,100.00
2018-10-21T06:18:17.491Z,100.00
2018-10-21T06:20:51.825Z,100.00
2018-10-21T06:23:22.193Z,100.00
2018-10-21T06:25:52.337Z,100.00
2018-10-21T06:28:22.539Z,100.00
2018-10-21T06:30:52.863Z,100.00
2018-10-21T06:33:23.034Z,100.00
2018-10-21T06:35:53.270Z,100.00
2018-10-21T06:38:23.388Z,100.00
2018-10-21T06:40:53.586Z,100.00
2018-10-21T06:43:23.738Z,100.00
2018-10-21T06:45:53.949Z,100.00
2018-10-21T06:48:24.376Z,100.00
2018-10-21T06:50:54.720Z,100.00
2018-10-21T06:53:24.842Z,100.00
2018-10-21T06:55:55.034Z,100.00
2018-10-21T06:58:25.448Z,100.00
2018-10-21T07:00:55.663Z,100.00
2018-10-21T07:03:25.876Z,100.00
2018-10-21T07:06:27.892Z,100.00
2018-10-21T07:09:01.471Z,100.00
2018-10-21T07:11:31.604Z,100.00
2018-10-21T07:14:01.814Z,100.00
2018-10-21T07:16:32.116Z,100.00
2018-10-21T07:19:02.354Z,100.00
2018-10-21T07:21:32.594Z,100.00
2018-10-21T07:24:02.885Z,100.00
2018-10-21T07:26:33.062Z,100.00
2018-10-21T07:29:03.317Z,100.00
2018-10-21T07:31:33.581Z,100.00
2018-10-21T07:34:03.892Z,100.00
2018-10-21T07:36:34.098Z,100.00
2018-10-21T07:39:05.854Z,100.00
2018-10-21T07:41:36.521Z,99.50
2018-10-21T07:44:07.239Z,98.02
2018-10-21T07:46:37.541Z,93.66
2018-10-21T07:49:07.841Z,90.84
2018-10-21T07:51:38.054Z,89.25
2018-10-21T07:54:08.320Z,85.98
2018-10-21T07:56:38.494Z,86.15
2018-10-21T07:59:08.622Z,85.12
2018-10-21T08:01:39.579Z,84.10
2018-10-21T08:04:09.755Z,78.44
2018-10-21T08:06:56.687Z,80.15
2018-10-21T08:09:27.092Z,77.80
2018-10-21T08:11:57.547Z,77.15
2018-10-21T08:14:27.875Z,75.05
2018-10-21T08:16:58.006Z,78.10
2018-10-21T08:19:28.164Z,73.49
2018-10-21T08:21:58.365Z,69.91
2018-10-21T08:24:28.514Z,67.63
2018-10-21T08:26:58.849Z,66.78
2018-10-21T08:29:28.961Z,64.79
2018-10-21T08:31:59.040Z,64.35
2018-10-21T08:34:29.266Z,64.60
2018-10-21T08:36:59.366Z,63.48
2018-10-21T08:39:29.438Z,63.64
2018-10-21T08:41:59.689Z,62.10
2018-10-21T08:44:29.839Z,60.40
2018-10-21T08:47:00.067Z,60.41
2018-10-21T08:49:30.359Z,59.94
2018-10-21T08:52:00.491Z,59.31
2018-10-21T08:54:30.631Z,61.59
2018-10-21T08:57:00.719Z,58.98
2018-10-21T08:59:30.859Z,59.83
2018-10-21T09:02:01.424Z,60.71
2018-10-21T09:04:33.284Z,57.37
2018-10-21T09:07:03.522Z,58.26
2018-10-21T09:09:33.589Z,61.24
2018-10-21T09:12:03.786Z,64.58
2018-10-21T09:14:33.975Z,65.08
2018-10-21T09:17:04.173Z,67.65
2018-10-21T09:19:34.220Z,68.07
2018-10-21T09:22:04.419Z,69.82
2018-10-21T09:24:34.526Z,71.16
2018-10-21T09:27:04.695Z,72.13
2018-10-21T09:29:34.834Z,70.60
2018-10-21T09:32:05.079Z,70.80
2018-10-21T09:34:35.200Z,71.50
2018-10-21T09:37:05.759Z,70.72
2018-10-21T09:39:35.895Z,71.31
2018-10-21T09:42:06.454Z,72.55
2018-10-21T09:44:36.666Z,73.86
2018-10-21T09:47:06.989Z,72.93
2018-10-21T09:49:37.310Z,71.40
2018-10-21T09:52:07.666Z,71.77
2018-10-21T09:54:37.772Z,73.95
2018-10-21T09:57:08.170Z,74.85
2018-10-21T09:59:38.282Z,75.24
2018-10-21T10:02:13.513Z,77.46
2018-10-21T10:04:43.690Z,77.89
2018-10-21T10:07:13.933Z,75.49
2018-10-21T10:09:44.373Z,74.90
2018-10-21T10:12:14.518Z,74.53
2018-10-21T10:14:44.605Z,72.06
2018-10-21T10:17:14.834Z,71.52
2018-10-21T10:19:44.984Z,72.89
2018-10-21T10:22:15.209Z,75.47
2018-10-21T10:24:45.764Z,73.48
2018-10-21T10:27:16.090Z,72.71
2018-10-21T10:29:46.166Z,71.56
2018-10-21T10:32:16.387Z,69.81
2018-10-21T10:34:46.582Z,72.42
2018-10-21T10:37:16.779Z,71.43
2018-10-21T10:39:46.938Z,68.98
2018-10-21T10:42:17.125Z,72.66
2018-10-21T10:44:47.228Z,73.14
2018-10-21T10:47:17.438Z,69.58
2018-10-21T10:49:47.591Z,68.53
2018-10-21T10:52:17.831Z,69.57
2018-10-21T10:54:47.976Z,69.54
2018-10-21T10:57:18.153Z,67.62
2018-10-21T10:59:48.270Z,66.03
2018-10-21T11:02:18.539Z,67.08
2018-10-21T11:04:48.775Z,66.53
2018-10-21T11:07:18.999Z,69.36
2018-10-21T11:09:49.209Z,69.48
2018-10-21T11:12:19.374Z,67.56
2018-10-21T11:14:49.704Z,65.61
2018-10-21T11:17:19.963Z,63.67
2018-10-21T11:19:50.100Z,61.05
2018-10-21T11:22:20.241Z,59.57
2018-10-21T11:24:50.532Z,59.86
2018-10-21T11:27:20.777Z,60.43
2018-10-21T11:29:50.909Z,62.73
2018-10-21T11:32:21.229Z,62.42
2018-10-21T11:34:51.340Z,60.68
2018-10-21T11:37:22.153Z,61.52
2018-10-21T11:39:52.204Z,61.49
2018-10-21T11:42:25.079Z,61.56
2018-10-21T11:44:55.235Z,60.59
2018-10-21T11:47:25.570Z,59.87
2018-10-21T11:49:56.809Z,59.31
2018-10-21T11:52:27.227Z,58.69
2018-10-21T11:54:57.449Z,58.05
2018-10-21T11:57:27.592Z,56.08
2018-10-21T11:59:57.761Z,56.13
2018-10-21T12:02:27.972Z,58.23
2018-10-21T12:04:58.119Z,56.97
2018-10-21T12:07:28.319Z,57.60
2018-10-21T12:09:58.564Z,58.71
2018-10-21T12:12:28.648Z,57.80
2018-10-21T12:15:00.765Z,57.61
2018-10-21T12:17:30.906Z,54.86
2018-10-21T12:20:01.117Z,56.72
2018-10-21T12:22:31.158Z,54.31
2018-10-21T12:25:01.283Z,55.13
2018-10-21T12:27:31.398Z,54.47
2018-10-21T12:30:01.519Z,55.19
2018-10-21T12:32:31.685Z,55.76
2018-10-21T12:35:01.796Z,55.64
2018-10-21T12:37:32.050Z,55.79
2018-10-21T12:40:02.339Z,58.04
2018-10-21T12:42:32.467Z,57.94
2018-10-21T12:45:02.807Z,58.88
2018-10-21T12:47:32.949Z,58.04
2018-10-21T12:50:03.066Z,55.90
2018-10-21T12:52:33.303Z,54.64
2018-10-21T12:55:03.448Z,53.01
2018-10-21T12:57:33.661Z,54.38
2018-10-21T13:00:03.857Z,53.10
2018-10-21T13:02:33.987Z,53.80
2018-10-21T13:05:04.119Z,55.35
2018-10-21T13:07:34.241Z,54.98
2018-10-21T13:10:04.530Z,56.95
2018-10-21T13:12:34.618Z,53.98
2018-10-21T13:15:04.900Z,51.83
2018-10-21T13:17:35.190Z,51.31
2018-10-21T13:20:05.499Z,51.11
2018-10-21T13:22:36.102Z,51.37
2018-10-21T13:25:06.675Z,51.59
2018-10-21T13:27:36.895Z,52.59
2018-10-21T13:30:08.473Z,52.88
2018-10-21T13:32:38.675Z,51.05
2018-10-21T13:35:09.261Z,51.20
2018-10-21T13:37:39.676Z,51.07
2018-10-21T13:40:10.095Z,50.18
2018-10-21T13:42:40.366Z,50.95
2018-10-21T13:45:10.793Z,49.88
2018-10-21T13:47:41.125Z,51.33
2018-10-21T13:50:11.372Z,52.61
2018-10-21T13:52:41.613Z,51.25
2018-10-21T13:55:12.013Z,50.58
2018-10-21T13:57:42.494Z,51.26
2018-10-21T14:00:12.758Z,51.30
2018-10-21T14:02:42.939Z,52.99
2018-10-21T14:05:13.085Z,52.45
2018-10-21T14:07:43.309Z,53.25
2018-10-21T14:10:13.423Z,52.04
2018-10-21T14:12:43.571Z,53.38
2018-10-21T14:15:13.730Z,53.80
2018-10-21T14:17:43.846Z,53.23
2018-10-21T14:20:14.077Z,53.83
2018-10-21T14:22:49.417Z,53.72
2018-10-21T14:25:19.567Z,54.42
2018-10-21T14:27:49.743Z,53.11
2018-10-21T14:30:20.064Z,53.25
2018-10-21T14:32:50.501Z,51.79
2018-10-21T14:35:20.654Z,51.91
2018-10-21T14:37:50.807Z,52.01
2018-10-21T14:40:26.811Z,51.68
2018-10-21T14:42:57.421Z,52.04
2018-10-21T14:45:27.567Z,51.92
2018-10-21T14:47:57.810Z,52.40
2018-10-21T14:50:28.134Z,54.40
2018-10-21T14:52:58.388Z,53.23
2018-10-21T14:55:28.453Z,54.49
2018-10-21T14:57:58.617Z,53.87
2018-10-21T15:00:29.031Z,53.06
2018-10-21T15:02:59.146Z,53.32
2018-10-21T15:05:29.215Z,53.78
2018-10-21T15:07:59.476Z,54.67
2018-10-21T15:10:29.588Z,55.75
2018-10-21T15:12:59.710Z,57.55
2018-10-21T15:15:29.906Z,55.46
2018-10-21T15:18:00.132Z,55.44
2018-10-21T15:20:30.280Z,55.72
2018-10-21T15:23:00.540Z,56.05
2018-10-21T15:25:30.619Z,55.76
2018-10-21T15:28:00.746Z,54.77
2018-10-21T15:30:30.875Z,54.52
2018-10-21T15:33:01.066Z,56.39
2018-10-21T15:35:31.180Z,57.09
2018-10-21T15:38:01.337Z,57.62
2018-10-21T15:40:31.918Z,61.42
2018-10-21T15:43:02.290Z,60.21
2018-10-21T15:45:32.474Z,60.72
2018-10-21T15:48:02.700Z,61.49
2018-10-21T15:50:32.900Z,62.17
2018-10-21T15:53:03.221Z,62.35
2018-10-21T15:55:33.355Z,62.42
2018-10-21T15:58:03.517Z,62.74
2018-10-21T16:00:33.714Z,63.40
2018-10-21T16:03:04.027Z,63.74
2018-10-21T16:05:34.252Z,64.16
2018-10-21T16:08:04.508Z,66.00
2018-10-21T16:10:35.735Z,66.65
2018-10-21T16:13:08.208Z,67.42
2018-10-21T16:15:39.020Z,67.63
2018-10-21T16:18:09.581Z,68.24
2018-10-21T16:20:40.028Z,67.40
2018-10-21T16:23:10.529Z,68.94
2018-10-21T16:25:40.996Z,70.50
2018-10-21T16:28:11.135Z,71.07
2018-10-21T16:30:41.287Z,71.61
2018-10-21T16:33:11.505Z,73.79
2018-10-21T16:35:41.782Z,75.81
2018-10-21T16:38:12.091Z,76.44
2018-10-21T16:40:42.318Z,77.10
2018-10-21T16:43:12.489Z,78.63
2018-10-21T16:45:42.672Z,79.25
2018-10-21T16:48:12.927Z,81.23
2018-10-21T16:50:42.995Z,81.88
2018-10-21T16:53:13.266Z,82.58
2018-10-21T16:55:44.336Z,82.75
2018-10-21T16:58:14.681Z,83.67
2018-10-21T17:00:45.316Z,84.48
2018-10-21T17:03:15.446Z,84.99
2018-10-21T17:05:45.666Z,85.95
2018-10-21T17:08:15.850Z,86.64
2018-10-21T17:10:52.975Z,87.55
2018-10-21T17:13:23.066Z,88.42
2018-10-21T17:15:53.179Z,88.99
2018-10-21T17:18:23.318Z,89.31
2018-10-21T17:20:53.497Z,89.56
2018-10-21T17:23:23.710Z,90.70
2018-10-21T17:25:53.890Z,90.99
2018-10-21T17:28:24.155Z,91.77
2018-10-21T17:30:54.288Z,92.16
2018-10-21T17:33:24.853Z,93.10
2018-10-21T17:35:55.039Z,93.73
2018-10-21T17:38:25.254Z,93.91
2018-10-21T17:40:55.503Z,93.85
2018-10-21T17:43:25.961Z,94.00
2018-10-21T17:45:56.609Z,93.92
2018-10-21T17:48:27.651Z,94.09
2018-10-21T17:50:58.156Z,94.80
2018-10-21T17:53:30.169Z,95.64
2018-10-21T17:56:01.696Z,95.84
2018-10-21T17:58:32.184Z,95.87
2018-10-21T18:01:03.803Z,95.71
2018-10-21T18:03:34.075Z,95.72
2018-10-21T18:06:04.327Z,96.33
2018-10-21T18:08:34.621Z,96.83
2018-10-21T18:11:04.937Z,97.43
2018-10-21T18:13:35.201Z,97.58
2018-10-21T18:16:05.577Z,97.73
2018-10-21T18:18:35.818Z,98.26
2018-10-21T18:21:06.434Z,98.03
2018-10-21T18:23:36.543Z,97.83
2018-10-21T18:26:06.986Z,98.43
2018-10-21T18:28:37.339Z,98.98
2018-10-21T18:31:07.645Z,99.41
2018-10-21T18:33:37.973Z,99.79
2018-10-21T18:36:08.193Z,100.00
2018-10-21T18:38:38.404Z,99.58
2018-10-21T18:41:08.792Z,99.82
2018-10-21T18:43:38.855Z,100.00
2018-10-21T18:46:09.340Z,100.00
2018-10-21T18:48:39.475Z,100.00
2018-10-21T18:51:09.760Z,100.00
2018-10-21T18:53:40.028Z,100.00
2018-10-21T18:56:10.188Z,100.00
2018-10-21T18:58:40.523Z,100.00
2018-10-21T19:01:10.862Z,100.00
2018-10-21T19:03:41.108Z,100.00
2018-10-21T19:06:11.303Z,100.00
2018-10-21T19:08:41.543Z,100.00
2018-10-21T19:11:11.898Z,100.00
2018-10-21T19:13:42.081Z,100.00
2018-10-21T19:16:12.199Z,100.00
2018-10-21T19:18:42.345Z,100.00
2018-10-21T19:21:12.499Z,100.00
2018-10-21T19:23:42.690Z,100.00
2018-10-21T19:26:12.832Z,100.00
2018-10-21T19:28:43.023Z,100.00
2018-10-21T19:31:13.412Z,100.00
2018-10-21T19:33:43.556Z,100.00
2018-10-21T19:36:13.881Z,100.00
2018-10-21T19:38:44.096Z,100.00
2018-10-21T19:41:14.652Z,100.00
2018-10-21T19:43:44.781Z,100.00
2018-10-21T19:46:15.072Z,100.00
2018-10-21T19:48:45.281Z,100.00
2018-10-21T19:51:16.370Z,100.00
2018-10-21T19:53:46.687Z,100.00
2018-10-21T19:56:16.920Z,100.00
2018-10-21T19:58:47.212Z,100.00
2018-10-21T20:01:17.654Z,100.00
2018-10-21T20:03:47.881Z,100.00
2018-10-21T20:06:18.022Z,100.00
2018-10-21T20:08:48.279Z,100.00
2018-10-21T20:11:18.506Z,100.00
2018-10-21T20:13:48.820Z,100.00
2018-10-21T20:16:19.053Z,100.00
2018-10-21T20:18:49.746Z,100.00
2018-10-21T20:21:20.057Z,100.00
2018-10-21T20:23:50.949Z,100.00
2018-10-21T20:26:21.150Z,100.00
2018-10-21T20:28:51.320Z,100.00
2018-10-21T20:31:21.454Z,100.00
2018-10-21T20:33:51.761Z,100.00
2018-10-21T20:36:22.016Z,100.00
2018-10-21T20:38:52.292Z,100.00
2018-10-21T20:41:22.441Z,100.00
2018-10-21T20:43:52.796Z,100.00
2018-10-21T20:46:22.961Z,100.00
2018-10-21T20:48:53.472Z,100.00
2018-10-21T20:51:23.750Z,100.00
2018-10-21T20:53:53.834Z,100.00
2018-10-21T20:56:24.070Z,100.00
2018-10-21T20:58:54.233Z,100.00
2018-10-21T21:01:24.328Z,100.00
2018-10-21T21:03:54.505Z,100.00
2018-10-21T21:06:24.828Z,100.00
2018-10-21T21:08:55.038Z,100.00
2018-10-21T21:11:25.291Z,100.00
2018-10-21T21:13:55.425Z,100.00
2018-10-21T21:16:25.564Z,100.00
2018-10-21T21:18:55.715Z,100.00
2018-10-21T21:21:26.001Z,100.00
2018-10-21T21:23:56.473Z,100.00
2018-10-21T21:26:26.673Z,100.00
2018-10-21T21:28:56.840Z,100.00
2018-10-21T21:31:27.068Z,100.00
2018-10-21T21:33:57.298Z,100.00
2018-10-21T21:36:27.499Z,100.00
2018-10-21T21:38:57.652Z,100.00
2018-10-21T21:41:27.778Z,100.00
2018-10-21T21:43:58.013Z,100.00
2018-10-21T21:46:28.251Z,100.00
2018-10-21T21:48:58.484Z,100.00
2018-10-21T21:51:28.592Z,100.00
2018-10-21T21:53:58.798Z,100.00
2018-10-21T21:56:28.983Z,100.00
2018-10-21T21:58:59.125Z,100.00
2018-10-21T22:01:29.338Z,100.00
2018-10-21T22:03:59.500Z,100.00
2018-10-21T22:06:29.634Z,100.00
2018-10-21T22:08:59.862Z,100.00
2018-10-21T22:11:30.042Z,100.00
2018-10-21T22:14:03.124Z,100.00
2018-10-21T22:16:33.443Z,100.00
2018-10-21T22:19:03.645Z,100.00
2018-10-21T22:21:34.026Z,100.00
2018-10-21T22:24:04.388Z,100.00
2018-10-21T22:26:34.588Z,100.00
2018-10-21T22:29:04.827Z,100.00
2018-10-21T22:31:35.045Z,100.00
2018-10-21T22:34:05.253Z,100.00
2018-10-21T22:36:35.400Z,100.00
2018-10-21T22:39:06.951Z,100.00
2018-10-21T22:41:37.240Z,100.00
2018-10-21T22:44:07.692Z,100.00
2018-10-21T22:46:37.835Z,100.00
2018-10-21T22:49:07.970Z,100.00
2018-10-21T22:51:38.110Z,100.00
2018-10-21T22:54:08.384Z,100.00
2018-10-21T22:56:38.604Z,100.00
2018-10-21T22:59:08.748Z,100.00
2018-10-21T23:01:38.958Z,100.00
2018-10-21T23:04:09.229Z,100.00
2018-10-21T23:06:39.293Z,100.00
2018-10-21T23:09:11.457Z,100.00
2018-10-21T23:11:42.070Z,100.00
2018-10-21T23:14:12.814Z,100.00
2018-10-21T23:16:42.942Z,100.00
2018-10-21T23:19:35.444Z,100.00
2018-10-21T23:22:05.913Z,100.00
2018-10-21T23:24:36.806Z,100.00
2018-10-21T23:27:07.467Z,100.00
2018-10-21T23:29:37.648Z,99.63
2018-10-21T23:32:07.856Z,98.98
2018-10-21T23:34:38.019Z,98.80
2018-10-21T23:37:08.248Z,98.81
2018-10-21T23:39:38.411Z,97.63
2018-10-21T23:42:08.670Z,96.94
2018-10-21T23:44:38.786Z,96.17
2018-10-21T23:47:08.897Z,95.16
2018-10-21T23:49:39.056Z,95.13
2018-10-21T23:52:09.753Z,94.08
2018-10-21T23:54:39.926Z,94.01
2018-10-21T23:57:10.026Z,93.14
2018-10-21T23:59:40.174Z,93.52
